Time;durP1;ratioP1;P1;durP2;ratioP2;P2;SDS_P1;SDS_P2;PMS_P1;PMS_P2;Temp;Humidity;BMP_temperature;BMP_pressure;BME280_temperature;BME280_humidity;BME280_pressure;Samples;Min_cycle;Max_cycle;Signal;HPM_P1;HPM_P2
2021/05/15 06:03:37;;;;;;;3.78;1.20;;;;;;;9.78;67.41;96016.28;4998273;28;20031;-82
2021/05/15 06:06:06;;;;;;;4.40;1.25;;;;;;;9.84;67.41;96017.34;5000389;28;20058;-82
2021/05/15 06:08:34;;;;;;;7.15;1.40;;;;;;;9.95;66.94;96023.78;5001071;28;20033;-81
2021/05/15 06:11:09;;;;;;;9.63;1.80;;;;;;;10.04;66.80;96014.84;5145773;23;20058;-85
2021/05/15 06:13:50;;;;;;;2.25;1.23;;;;;;;10.15;66.32;96011.69;5004250;23;20095;-82
2021/05/15 06:16:28;;;;;;;1.88;0.70;;;;;;;10.26;65.53;96011.13;5226840;23;20027;-81
2021/05/15 06:19:02;;;;;;;2.22;0.85;;;;;;;10.38;65.82;96008.00;5570164;23;20042;-81
2021/05/15 06:21:31;;;;;;;0.85;0.50;;;;;;;10.50;65.40;96006.44;5000608;28;20041;-81
2021/05/15 06:24:04;;;;;;;3.35;0.88;;;;;;;10.64;64.94;96010.69;5000278;28;20026;-80
2021/05/15 06:29:15;;;;;;;1.13;0.88;;;;;;;10.89;63.92;96005.75;5070034;23;20052;-79
2021/05/15 06:31:41;;;;;;;4.03;0.57;;;;;;;11.02;63.86;95999.75;5019438;28;20136;-81
2021/05/15 06:34:08;;;;;;;1.92;0.47;;;;;;;11.17;63.56;96003.97;5034781;28;20046;-80
2021/05/15 06:36:34;;;;;;;3.22;0.50;;;;;;;11.27;63.14;96004.38;5035473;28;20050;-81
2021/05/15 06:39:01;;;;;;;0.40;0.40;;;;;;;11.36;62.24;96003.16;5037601;28;20071;-82
2021/05/15 06:41:27;;;;;;;0.45;0.45;;;;;;;11.43;61.73;95998.75;5036772;28;20195;-81
2021/05/15 06:43:53;;;;;;;0.30;0.30;;;;;;;11.50;60.89;95994.34;5035595;28;20061;-80
2021/05/15 06:46:19;;;;;;;0.40;0.30;;;;;;;11.58;61.01;95992.50;5040551;28;20045;-82
2021/05/15 06:48:45;;;;;;;1.20;0.45;;;;;;;11.62;60.82;95997.13;5046412;28;20045;-82
2021/05/15 06:51:11;;;;;;;0.38;0.20;;;;;;;11.66;60.55;95997.53;5048184;28;20054;-82
2021/05/15 06:53:55;;;;;;;1.85;0.40;;;;;;;11.70;60.11;95998.75;5039211;28;20052;-82
2021/05/15 06:56:30;;;;;;;0.40;0.40;;;;;;;11.77;60.36;95999.53;5037785;28;20045;-82
2021/05/15 06:58:56;;;;;;;1.30;0.50;;;;;;;11.85;60.37;95999.31;5044413;28;20049;-80
2021/05/15 07:01:22;;;;;;;1.50;0.40;;;;;;;11.95;60.66;96004.13;5057357;28;20045;-80
2021/05/15 07:03:48;;;;;;;1.52;0.60;;;;;;;12.08;59.85;95998.88;5056840;28;20032;-80
2021/05/15 07:06:15;;;;;;;0.52;0.38;;;;;;;12.24;59.88;95989.75;5054002;28;20109;-82
2021/05/15 07:08:41;;;;;;;1.92;0.52;;;;;;;12.44;59.85;95992.31;5035502;28;20049;-82
2021/05/15 07:11:06;;;;;;;0.57;0.40;;;;;;;12.65;58.70;95985.97;5035425;28;20046;-82
2021/05/15 07:13:33;;;;;;;1.38;0.40;;;;;;;12.87;58.79;95988.25;5034121;28;20091;-81
2021/05/15 07:15:58;;;;;;;3.17;0.30;;;;;;;13.06;57.37;95981.31;5034591;28;20045;-82
2021/05/15 07:18:25;;;;;;;0.47;0.30;;;;;;;13.16;56.38;95979.00;5037982;28;20064;-82
2021/05/15 07:20:51;;;;;;;1.20;0.82;;;;;;;13.18;56.26;95972.56;5036698;28;20091;-81
2021/05/15 07:23:18;;;;;;;0.20;0.20;;;;;;;13.15;55.26;95972.97;5048632;28;20109;-81
2021/05/15 07:25:44;;;;;;;0.73;0.63;;;;;;;13.14;55.15;95973.16;5049422;28;20113;-82
2021/05/15 07:28:10;;;;;;;1.10;0.60;;;;;;;13.08;55.67;95966.97;5038140;28;20056;-82
2021/05/15 07:30:39;;;;;;;0.30;0.22;;;;;;;13.08;54.90;95969.59;5037124;28;20049;-82
2021/05/15 07:33:07;;;;;;;0.30;0.30;;;;;;;13.09;55.07;95965.94;5036419;28;20148;-82
2021/05/15 07:35:33;;;;;;;1.25;0.60;;;;;;;13.14;54.75;95967.94;5036466;28;20076;-82
2021/05/15 07:37:59;;;;;;;1.95;0.55;;;;;;;13.25;54.94;95964.63;5036188;28;20497;-82
2021/05/15 07:40:26;;;;;;;0.55;0.45;;;;;;;13.38;54.81;95958.50;5036170;28;20080;-82
2021/05/15 07:42:52;;;;;;;8.05;5.35;;;;;;;13.51;54.07;95955.78;5035268;28;20053;-82
2021/05/15 07:45:18;;;;;;;0.50;0.40;;;;;;;13.54;53.36;95947.47;5038755;28;20056;-82
2021/05/15 07:47:44;;;;;;;4.85;2.53;;;;;;;13.57;52.90;95948.88;5043780;28;20118;-82
2021/05/15 07:50:11;;;;;;;25.65;15.02;;;;;;;13.58;52.73;95948.66;5041071;28;20053;-81
2021/05/15 07:52:37;;;;;;;30.45;23.20;;;;;;;13.62;53.02;95946.38;5042283;28;20045;-82
2021/05/15 07:55:04;;;;;;;1.27;1.08;;;;;;;13.60;52.29;95943.22;5040095;28;20053;-82
2021/05/15 07:57:31;;;;;;;0.90;0.40;;;;;;;13.61;52.60;95952.66;5041336;28;20088;-82
2021/05/15 07:59:57;;;;;;;1.65;0.30;;;;;;;13.65;52.40;95959.06;5042008;28;20122;-83
2021/05/15 08:02:27;;;;;;;0.90;0.32;;;;;;;13.72;52.01;95953.75;5038693;28;20062;-81
2021/05/15 08:04:53;;;;;;;0.75;0.30;;;;;;;13.77;51.56;95954.72;5039584;28;20041;-81
2021/05/15 08:07:19;;;;;;;0.55;0.30;;;;;;;13.83;50.93;95945.19;5040099;28;20060;-81
2021/05/15 08:09:45;;;;;;;2.85;0.93;;;;;;;13.89;51.23;95941.69;5039927;28;20045;-81
2021/05/15 08:12:11;;;;;;;3.42;2.28;;;;;;;13.93;51.22;95950.72;5039961;28;20053;-80
2021/05/15 08:14:38;;;;;;;2.45;0.70;;;;;;;13.95;50.83;95948.69;5039371;28;20140;-80
2021/05/15 08:17:04;;;;;;;49.53;31.92;;;;;;;13.98;50.58;95948.22;5039487;28;20053;-80
2021/05/15 08:19:30;;;;;;;4.70;3.33;;;;;;;14.00;50.14;95934.91;5039145;28;20050;-81
2021/05/15 08:21:56;;;;;;;2.47;0.75;;;;;;;13.99;50.08;95939.38;5039300;28;20272;-80
2021/05/15 08:24:22;;;;;;;1.20;0.35;;;;;;;13.99;50.31;95934.13;5039323;28;20057;-81
2021/05/15 08:26:50;;;;;;;1.38;0.28;;;;;;;14.06;50.04;95931.41;5039315;28;20049;-81
2021/05/15 08:29:18;;;;;;;1.27;0.60;;;;;;;14.12;50.06;95933.13;5039532;28;20049;-81
2021/05/15 08:31:45;;;;;;;3.05;1.52;;;;;;;14.15;50.10;95934.53;5039948;28;20240;-80
2021/05/15 08:34:10;;;;;;;2.03;1.27;;;;;;;14.16;50.04;95936.13;5039243;28;20206;-81
2021/05/15 08:36:37;;;;;;;1.58;0.60;;;;;;;14.17;50.23;95932.50;5039527;28;20069;-81
2021/05/15 08:39:05;;;;;;;2.30;1.10;;;;;;;14.20;49.99;95938.09;5039753;28;20049;-81
2021/05/15 08:41:32;;;;;;;38.95;20.77;;;;;;;14.28;50.66;95934.38;5040269;28;20045;-83
2021/05/15 08:44:00;;;;;;;30.02;19.67;;;;;;;14.37;50.06;95930.41;5039667;28;20053;-82
2021/05/15 08:46:28;;;;;;;5.75;3.92;;;;;;;14.47;50.61;95934.34;5042847;28;20512;-81
2021/05/15 08:48:58;;;;;;;0.90;0.40;;;;;;;14.56;48.95;95927.78;5040448;28;20424;-81
2021/05/15 08:51:24;;;;;;;0.22;0.20;;;;;;;14.63;49.42;95928.50;5042125;28;20060;-80
2021/05/15 08:53:51;;;;;;;0.90;0.20;;;;;;;14.74;48.75;95930.34;5041327;28;20105;-80
2021/05/15 08:56:17;;;;;;;1.35;0.13;;;;;;;14.93;48.42;95927.66;5039378;28;20440;-81
2021/05/15 08:58:44;;;;;;;1.38;0.47;;;;;;;15.09;48.43;95911.25;5039720;28;20575;-81
2021/05/15 09:01:13;;;;;;;0.52;0.32;;;;;;;15.20;47.17;95918.34;5039493;28;20045;-80
2021/05/15 09:03:39;;;;;;;25.90;18.67;;;;;;;15.30;47.85;95916.97;5039972;28;20056;-81
2021/05/15 09:06:07;;;;;;;6.78;1.25;;;;;;;15.36;47.32;95908.16;5040692;28;20056;-80
2021/05/15 09:08:36;;;;;;;2.30;0.40;;;;;;;15.39;47.28;95905.06;5040991;28;20052;-81
2021/05/15 09:11:04;;;;;;;0.43;0.30;;;;;;;15.34;46.30;95907.59;5040824;28;20508;-80
2021/05/15 09:13:32;;;;;;;0.75;0.25;;;;;;;15.28;46.45;95903.25;5044365;28;20060;-81
2021/05/15 09:16:01;;;;;;;0.57;0.10;;;;;;;15.25;46.17;95894.00;5040152;28;20421;-83
2021/05/15 09:18:32;;;;;;;0.40;0.10;;;;;;;15.25;46.43;95889.53;5041731;28;20056;-80
2021/05/15 09:21:02;;;;;;;0.57;0.20;;;;;;;15.23;46.03;95894.22;5041412;28;20137;-81
2021/05/15 09:23:32;;;;;;;0.10;0.10;;;;;;;15.22;45.48;95887.38;5041150;28;20100;-81
2021/05/15 09:26:01;;;;;;;0.98;0.30;;;;;;;15.26;46.46;95890.34;5041618;28;20054;-81
2021/05/15 09:28:33;;;;;;;0.50;0.40;;;;;;;15.34;46.18;95886.56;5041191;28;20049;-81
2021/05/15 09:31:12;;;;;;;3.90;1.00;;;;;;;15.43;47.31;95885.19;5041647;28;20058;-83
2021/05/15 09:33:39;;;;;;;0.57;0.30;;;;;;;15.51;46.65;95871.72;5043709;28;20058;-81
2021/05/15 09:36:18;;;;;;;55.17;35.17;;;;;;;15.54;47.59;95871.25;5053071;28;20049;-81
2021/05/15 09:39:07;;;;;;;23.85;13.93;;;;;;;15.61;47.61;95871.13;5057827;28;20072;-80
2021/05/15 09:41:36;;;;;;;3.83;1.00;;;;;;;15.66;46.43;95869.41;5045997;28;20504;-81
2021/05/15 09:44:05;;;;;;;1.88;0.35;;;;;;;15.68;46.63;95871.81;5039312;28;20045;-81
2021/05/15 09:46:34;;;;;;;0.55;0.40;;;;;;;15.79;46.58;95863.13;5039475;28;20042;-81
2021/05/15 09:49:01;;;;;;;2.00;0.70;;;;;;;15.94;46.18;95865.25;5054316;28;20037;-81
2021/05/15 09:51:28;;;;;;;2.75;1.25;;;;;;;16.12;46.08;95863.50;5053095;28;20056;-81
2021/05/15 09:53:55;;;;;;;0.30;0.20;;;;;;;16.32;44.91;95858.59;5039846;28;20042;-81
2021/05/15 09:56:27;;;;;;;0.60;0.45;;;;;;;16.46;45.21;95845.91;5040930;28;20105;-81
2021/05/15 09:58:56;;;;;;;0.85;0.13;;;;;;;16.51;45.03;95845.22;5042387;28;20041;-81
2021/05/15 10:01:23;;;;;;;0.73;0.10;;;;;;;16.51;44.74;95842.56;5040022;28;20048;-81
2021/05/15 10:03:58;;;;;;;7.28;4.97;;;;;;;16.53;44.49;95840.50;5039598;28;20057;-81
2021/05/15 10:06:25;;;;;;;13.93;9.75;;;;;;;16.52;44.28;95838.94;5039405;28;20052;-81
2021/05/15 10:08:52;;;;;;;13.77;8.68;;;;;;;16.51;45.23;95835.50;5040846;28;20057;-81
2021/05/15 10:11:21;;;;;;;43.30;31.08;;;;;;;16.53;45.18;95828.16;5039555;28;20045;-80
2021/05/15 10:13:50;;;;;;;3.67;2.38;;;;;;;16.58;45.19;95828.25;5040844;28;20049;-81
2021/05/15 10:16:18;;;;;;;0.20;0.20;;;;;;;16.64;43.00;95816.75;5040911;28;20045;-80
2021/05/15 10:18:46;;;;;;;0.60;0.40;;;;;;;16.63;42.79;95819.63;5056749;28;20045;-79
2021/05/15 10:21:13;;;;;;;0.20;0.20;;;;;;;16.62;43.17;95812.78;5058823;28;20025;-80
2021/05/15 10:23:42;;;;;;;0.10;0.10;;;;;;;16.67;42.85;95805.72;5058454;28;20064;-80
2021/05/15 10:26:16;;;;;;;0.17;0.13;;;;;;;16.75;42.87;95799.28;5050702;28;20080;-81
2021/05/15 10:28:45;;;;;;;1.05;0.25;;;;;;;16.85;43.15;95802.09;5041181;28;20050;-81
2021/05/15 10:31:14;;;;;;;0.20;0.10;;;;;;;16.88;42.60;95801.63;5040884;28;20053;-81
2021/05/15 10:33:43;;;;;;;1.33;0.10;;;;;;;16.87;42.37;95794.75;5051295;28;20040;-82
2021/05/15 10:36:21;;;;;;;3.95;3.15;;;;;;;16.89;42.40;95787.41;5056766;28;20049;-82
2021/05/15 10:38:51;;;;;;;2.95;1.55;;;;;;;16.95;42.56;95783.00;5044221;28;20069;-82
2021/05/15 10:41:20;;;;;;;26.77;19.48;;;;;;;17.00;42.60;95793.63;5041998;28;20049;-83
2021/05/15 10:43:49;;;;;;;95.82;65.78;;;;;;;17.15;43.40;95784.34;5042994;28;20045;-82
2021/05/15 10:46:23;;;;;;;4.07;2.85;;;;;;;17.26;41.71;95786.84;5042253;28;20053;-82
2021/05/15 10:49:03;;;;;;;1.85;0.55;;;;;;;17.29;41.75;95775.84;5043031;28;20045;-82
2021/05/15 10:51:41;;;;;;;0.20;0.10;;;;;;;17.33;40.92;95775.34;5043410;28;20132;-82
2021/05/15 10:54:15;;;;;;;0.98;0.20;;;;;;;17.30;40.54;95779.28;5043522;28;20060;-82
2021/05/15 10:56:53;;;;;;;0.60;0.30;;;;;;;17.17;40.68;95783.06;5046100;28;20053;-82
2021/05/15 10:59:23;;;;;;;0.95;0.20;;;;;;;17.04;41.07;95776.28;5042869;28;20046;-82
2021/05/15 11:02:07;;;;;;;0.63;0.10;;;;;;;16.95;40.85;95779.59;5043071;28;20497;-82
2021/05/15 11:04:48;;;;;;;2.97;0.30;;;;;;;16.81;42.11;95779.91;5047983;28;20053;-82
2021/05/15 11:07:20;;;;;;;;;;;;;;;16.71;42.72;95766.56;5048727;28;20057;-82
2021/05/15 11:10:10;;;;;;;2.15;0.28;;;;;;;16.55;43.44;95789.25;5054355;28;19905;-82
2021/05/15 11:12:41;;;;;;;0.45;0.20;;;;;;;16.36;42.09;95787.88;5055125;28;20056;-82
2021/05/15 11:15:13;;;;;;;2.30;0.65;;;;;;;16.18;43.79;95802.00;5024557;28;20052;-82
2021/05/15 11:17:46;;;;;;;1.95;0.52;;;;;;;15.91;46.68;95807.84;5046365;28;20113;-82
2021/05/15 11:20:18;;;;;;;8.50;0.60;;;;;;;15.48;49.25;95797.78;5041336;28;20075;-82
2021/05/15 11:22:50;;;;;;;3.65;0.20;;;;;;;15.24;48.38;95788.13;5048873;28;20076;-82
2021/05/15 11:25:29;;;;;;;0.40;0.30;;;;;;;14.98;49.47;95768.38;5043378;28;20113;-82
2021/05/15 11:28:01;;;;;;;0.85;0.45;;;;;;;14.80;50.01;95766.69;5044094;28;20420;-82
2021/05/15 11:30:43;;;;;;;1.58;0.70;;;;;;;14.74;51.24;95772.84;5041457;28;20059;-82
2021/05/15 11:33:16;;;;;;;1.10;0.65;;;;;;;14.71;52.78;95768.03;5041911;28;20077;-82
2021/05/15 11:35:48;;;;;;;0.85;0.45;;;;;;;14.63;51.90;95760.50;5041808;28;20461;-82
2021/05/15 11:38:21;;;;;;;2.60;0.55;;;;;;;14.55;52.69;95764.25;5041460;28;20414;-82
2021/05/15 11:40:55;;;;;;;0.52;0.35;;;;;;;14.51;52.14;95760.47;5024665;28;20076;-82
2021/05/15 11:43:32;;;;;;;0.88;0.73;;;;;;;14.49;53.05;95756.47;5047238;28;20034;-82
2021/05/15 11:46:05;;;;;;;1.73;0.77;;;;;;;14.49;53.48;95751.22;5055704;28;20037;-82
2021/05/15 11:51:44;;;;;;;1.00;0.75;;;;;;;14.57;53.59;95735.97;5174694;23;20032;-81
2021/05/15 11:57:19;;;;;;;5.82;0.50;;;;;;;14.80;53.82;95737.81;4989757;28;20046;-80
2021/05/15 12:13:19;;;;;;;1.42;0.43;;;;;;;15.16;52.76;95712.28;5038081;28;20053;-82
2021/05/15 12:19:24;;;;;;;0.68;0.60;;;;;;;15.27;51.82;95708.03;5021331;28;20045;-82
2021/05/15 12:33:07;;;;;;;0.93;0.60;;;;;;;15.27;51.85;95696.72;4998303;28;20059;-81
2021/05/15 13:22:08;;;;;;;1.48;0.55;;;;;;;14.47;57.65;95713.91;4998140;28;20065;-78
2021/05/15 13:24:53;;;;;;;1.35;0.90;;;;;;;14.38;58.37;95661.78;4999669;28;20046;-79
2021/05/15 13:27:43;;;;;;;2.53;1.10;;;;;;;14.36;59.22;95655.16;5000169;28;20057;-81
2021/05/15 13:30:19;;;;;;;2.55;0.63;;;;;;;14.37;58.91;95668.06;5015441;28;20046;-82
2021/05/15 13:32:58;;;;;;;2.88;0.65;;;;;;;14.45;59.92;95666.09;4997604;28;20101;-81
2021/05/15 13:35:47;;;;;;;1.00;0.88;;;;;;;14.57;59.63;95657.25;5000787;28;20086;-79
2021/05/15 13:38:26;;;;;;;1.77;0.50;;;;;;;14.68;59.89;95657.47;5018044;28;20046;-80
2021/05/15 13:41:14;;;;;;;2.23;0.40;;;;;;;14.76;59.27;95644.78;5017397;28;20510;-80
2021/05/15 13:43:56;;;;;;;0.57;0.45;;;;;;;14.87;58.61;95647.59;5018304;28;20069;-80
2021/05/15 13:55:22;;;;;;;0.85;0.45;;;;;;;15.23;56.85;95628.88;5134935;23;20051;-82
2021/05/15 14:05:23;;;;;;;1.50;0.30;;;;;;;15.40;57.17;95617.63;4973159;29;20087;-82
2021/05/15 14:08:06;;;;;;;1.42;0.47;;;;;;;15.43;56.42;95606.63;4979672;29;20062;-80
2021/05/15 14:13:42;;;;;;;0.77;0.52;;;;;;;15.40;54.48;95617.63;4999061;28;20073;-80
2021/05/15 14:16:27;;;;;;;0.75;0.75;;;;;;;15.36;54.57;95614.66;4983850;28;20047;-80
2021/05/15 14:19:12;;;;;;;1.25;0.40;;;;;;;15.38;55.15;95614.44;4997800;28;20530;-79
2021/05/15 14:34:36;;;;;;;1.75;0.43;;;;;;;15.27;55.63;95608.19;4999296;28;20041;-81
2021/05/15 15:15:44;;;;;;;1.23;0.30;;;;;;;15.75;52.71;95558.81;3921110;23;20120;-80
2021/05/15 15:18:11;;;;;;;0.40;0.40;;;;;;;15.75;52.31;95564.88;5022020;28;20062;-81
2021/05/15 15:20:39;;;;;;;0.68;0.47;;;;;;;15.73;52.74;95560.88;5011973;28;20057;-81
2021/05/15 15:23:06;;;;;;;2.03;0.95;;;;;;;15.69;53.09;95557.13;4997348;28;20108;-82
2021/05/15 15:25:46;;;;;;;2.90;0.75;;;;;;;15.65;52.89;95544.47;4997040;28;20057;-81
2021/05/15 15:28:13;;;;;;;0.55;0.47;;;;;;;15.66;52.82;95546.03;5007148;28;20421;-81
2021/05/15 15:30:45;;;;;;;1.95;0.73;;;;;;;15.68;53.21;95542.34;5036701;28;20098;-82
2021/05/15 15:33:23;;;;;;;2.13;0.90;;;;;;;15.70;53.16;95535.03;5032169;28;21676;-81
2021/05/15 15:35:52;;;;;;;0.80;0.55;;;;;;;15.70;53.38;95542.91;5022003;28;20058;-82
2021/05/15 15:38:29;;;;;;;2.72;0.63;;;;;;;15.68;52.83;95537.09;5026270;28;20038;-82
2021/05/15 15:41:01;;;;;;;0.40;0.40;;;;;;;15.64;52.87;95529.72;5033842;28;20054;-82
2021/05/15 15:43:31;;;;;;;0.50;0.20;;;;;;;15.62;52.74;95531.00;5020342;28;20041;-82
2021/05/15 15:46:04;;;;;;;2.28;0.60;;;;;;;15.59;52.89;95536.72;5021206;28;20112;-81
2021/05/15 15:48:38;;;;;;;1.50;0.50;;;;;;;15.56;53.06;95526.69;5021187;28;20033;-81
2021/05/15 15:51:12;;;;;;;0.45;0.45;;;;;;;15.52;53.06;95526.34;5037765;28;20061;-82
2021/05/15 15:53:44;;;;;;;2.70;0.70;;;;;;;15.47;53.60;95528.91;5031175;28;20109;-82
2021/05/15 19:03:53;;;;;;;3.70;0.65;;;;;;;11.61;63.05;95602.88;4994747;28;20422;-80
